createdAt,value
2022-09-03T00:01:22.411Z,68708.66
2022-09-03T00:03:55.722Z,68706.38
2022-09-03T00:06:46.491Z,68702.97
2022-09-03T00:09:31.428Z,68694.25
2022-09-03T00:12:08.413Z,68703.16
2022-09-03T00:14:46.158Z,68708.47
2022-09-03T00:17:18.017Z,68702.41
2022-09-03T00:19:55.721Z,68699.56
2022-09-03T00:22:27.534Z,68686.50
2022-09-03T00:24:56.864Z,68685.16
2022-09-03T00:27:28.054Z,68679.09
2022-09-03T00:29:56.430Z,68682.72
2022-09-03T00:32:53.203Z,68673.44
2022-09-03T00:35:27.342Z,68666.44
2022-09-03T00:37:55.944Z,68661.09
2022-09-03T00:40:50.288Z,68649.91
2022-09-03T00:43:52.679Z,68652.78
2022-09-03T00:46:32.738Z,68648.22
2022-09-03T00:49:21.875Z,68636.09
2022-09-03T00:51:59.881Z,68618.13
2022-09-03T00:54:46.074Z,68605.03
2022-09-03T00:57:45.237Z,68600.50
2022-09-03T01:00:16.916Z,68593.13
2022-09-03T01:03:05.330Z,68587.81
2022-09-03T01:05:43.832Z,68584.41
2022-09-03T01:08:44.585Z,68566.03
2022-09-03T01:11:18.734Z,68564.94
2022-09-03T01:14:12.084Z,68570.41
2022-09-03T01:16:58.714Z,68565.69
2022-09-03T01:19:41.192Z,68566.03
2022-09-03T01:22:31.648Z,68564.00
2022-09-03T01:25:23.331Z,68561.91
2022-09-03T01:28:20.671Z,68562.28
2022-09-03T01:31:27.300Z,68551.84
2022-09-03T01:34:06.195Z,68561.91
2022-09-03T01:36:56.592Z,68565.31
2022-09-03T01:39:26.951Z,68557.72
2022-09-03T01:42:20.746Z,68554.50
2022-09-03T01:45:07.453Z,68557.94
2022-09-03T01:47:53.370Z,68560.03
2022-09-03T01:50:39.952Z,68557.94
2022-09-03T01:53:13.169Z,68552.81
2022-09-03T01:56:13.749Z,68548.66
2022-09-03T01:59:03.822Z,68551.69
2022-09-03T02:01:48.700Z,68551.09
2022-09-03T02:04:23.428Z,68552.06
2022-09-03T02:06:52.481Z,68548.44
2022-09-03T02:09:20.875Z,68559.03
2022-09-03T02:12:08.718Z,68564.72
2022-09-03T02:14:36.252Z,68581.00
2022-09-03T02:17:05.919Z,68577.22
2022-09-03T02:19:34.700Z,68583.47
2022-09-03T02:22:01.984Z,68589.16
2022-09-03T02:24:29.259Z,68595.59
2022-09-03T02:26:56.983Z,68602.59
2022-09-03T02:29:24.671Z,68599.38
2022-09-03T02:31:51.870Z,68593.69
2022-09-03T02:34:19.039Z,68588.00
2022-09-03T02:36:47.778Z,68593.13
2022-09-03T02:39:16.705Z,68597.47
2022-09-03T02:41:44.840Z,68588.41
2022-09-03T02:44:19.988Z,68576.66
2022-09-03T02:46:52.234Z,68555.28
2022-09-03T02:49:19.638Z,68551.69
2022-09-03T02:51:46.866Z,68543.91
2022-09-03T02:54:16.726Z,68549.22
2022-09-03T02:56:48.356Z,68546.56
2022-09-03T02:59:17.166Z,68542.41
2022-09-03T03:01:44.291Z,68533.13
2022-09-03T03:04:14.213Z,68518.38
2022-09-03T03:06:41.459Z,68512.69
2022-09-03T03:09:08.647Z,68505.31
2022-09-03T03:11:37.073Z,68504.53
2022-09-03T03:14:04.440Z,68496.03
2022-09-03T03:16:31.908Z,68494.53
2022-09-03T03:19:00.235Z,68489.22
2022-09-03T03:21:27.649Z,68491.69
2022-09-03T03:23:55.099Z,68477.50
2022-09-03T03:26:24.283Z,68472.94
2022-09-03T03:28:59.274Z,68480.53
2022-09-03T03:31:27.558Z,68468.03
2022-09-03T03:33:56.521Z,68472.56
2022-09-03T03:36:25.979Z,68472.78
2022-09-03T03:38:55.255Z,68470.13
2022-09-03T03:41:25.224Z,68470.88
2022-09-03T03:43:55.064Z,68460.84
2022-09-03T03:46:23.821Z,68461.81
2022-09-03T03:48:52.643Z,68454.97
2022-09-03T03:51:20.136Z,68453.88
2022-09-03T03:53:47.550Z,68451.78
2022-09-03T03:56:16.569Z,68450.84
2022-09-03T03:58:44.296Z,68451.59
2022-09-03T04:01:14.105Z,68446.47
2022-09-03T04:03:42.445Z,68433.63
2022-09-03T04:06:11.616Z,68430.41
2022-09-03T04:08:43.996Z,68415.66
2022-09-03T04:11:16.259Z,68418.31
2022-09-03T04:13:45.600Z,68422.47
2022-09-03T04:16:15.713Z,68430.22
2022-09-03T04:18:42.927Z,68421.50
2022-09-03T04:21:15.937Z,68424.16
2022-09-03T04:23:45.057Z,68410.38
2022-09-03T04:26:17.854Z,68411.88
2022-09-03T04:28:45.702Z,68406.59
2022-09-03T04:31:13.986Z,68407.91
2022-09-03T04:33:42.478Z,68402.25
2022-09-03T04:36:11.356Z,68393.16
2022-09-03T04:38:41.449Z,68388.63
2022-09-03T04:41:11.410Z,68376.53
2022-09-03T04:43:39.268Z,68370.66
2022-09-03T04:46:10.882Z,68371.22
2022-09-03T04:48:49.933Z,68367.25
2022-09-03T04:51:27.349Z,68359.72
2022-09-03T04:54:00.320Z,68361.41
2022-09-03T04:56:30.053Z,68357.44
2022-09-03T04:58:59.852Z,68362.56
2022-09-03T05:01:31.852Z,68361.41
2022-09-03T05:04:00.512Z,68365.59
2022-09-03T05:06:29.508Z,68354.81
2022-09-03T05:08:57.496Z,68359.53
2022-09-03T05:11:26.557Z,68362.94
2022-09-03T05:13:55.951Z,68382.00
2022-09-03T05:16:24.270Z,68408.66
2022-09-03T05:18:56.705Z,68435.34
2022-09-03T05:21:24.677Z,68456.13
2022-09-03T05:23:52.884Z,68475.78
2022-09-03T05:26:23.455Z,68494.31
2022-09-03T05:28:55.163Z,68501.31
2022-09-03T05:31:26.163Z,68510.44
2022-09-03T05:33:59.673Z,68527.09
2022-09-03T05:36:30.285Z,68534.25
2022-09-03T05:38:59.179Z,68542.59
2022-09-03T05:41:27.761Z,68553.38
2022-09-03T05:43:56.725Z,68559.25
2022-09-03T05:46:32.644Z,68572.88
2022-09-03T05:49:02.162Z,68574.00
2022-09-03T05:51:30.722Z,68571.16
2022-09-03T05:53:58.846Z,68565.50
2022-09-03T05:56:28.282Z,68575.91
2022-09-03T05:58:59.911Z,68579.31
2022-09-03T06:01:33.240Z,68582.53
2022-09-03T06:04:08.989Z,68578.56
2022-09-03T06:06:39.285Z,68569.66
2022-09-03T06:09:16.026Z,68574.56
2022-09-03T06:11:44.124Z,68595.59
2022-09-03T06:14:14.524Z,68607.13
2022-09-03T06:16:44.379Z,68604.28
2022-09-03T06:19:13.217Z,68619.03
2022-09-03T06:21:45.321Z,68645.38
2022-09-03T06:24:20.148Z,68684.59
2022-09-03T06:26:49.554Z,68722.28
2022-09-03T06:29:19.194Z,68785.22
2022-09-03T06:31:48.633Z,68836.59
2022-09-03T06:34:18.556Z,68898.22
2022-09-03T06:36:46.278Z,68948.72
2022-09-03T06:39:13.528Z,68980.75
2022-09-03T06:41:41.052Z,69006.78
2022-09-03T06:44:11.874Z,69015.13
2022-09-03T06:46:42.473Z,68997.69
2022-09-03T06:49:11.760Z,68989.72
2022-09-03T06:51:39.713Z,68937.34
2022-09-03T06:54:08.880Z,68873.56
2022-09-03T06:56:40.456Z,68855.38
2022-09-03T06:59:10.919Z,68846.28
2022-09-03T07:01:41.051Z,68854.44
2022-09-03T07:04:14.045Z,68855.38
2022-09-03T07:06:42.994Z,68870.72
2022-09-03T07:09:12.331Z,68885.53
2022-09-03T07:11:47.112Z,68893.47
2022-09-03T07:14:15.775Z,68885.53
2022-09-03T07:16:43.886Z,68873.56
2022-09-03T07:19:13.394Z,68858.78
2022-09-03T07:21:46.482Z,68853.47
2022-09-03T07:24:16.777Z,68854.03
2022-09-03T07:26:46.477Z,68846.28
2022-09-03T07:29:15.985Z,68869.03
2022-09-03T07:31:44.007Z,68885.53
2022-09-03T07:34:13.372Z,68893.47
2022-09-03T07:36:47.685Z,68909.25
2022-09-03T07:39:18.029Z,68910.72
2022-09-03T07:41:46.250Z,68916.25
2022-09-03T07:44:16.305Z,68922.50
2022-09-03T07:46:45.660Z,68944.16
2022-09-03T07:49:13.952Z,68958.59
2022-09-03T07:51:41.174Z,68958.41
2022-09-03T07:54:11.243Z,68988.97
2022-09-03T07:56:40.507Z,68997.50
2022-09-03T07:59:08.953Z,69014.19
2022-09-03T08:01:39.142Z,69020.28
2022-09-03T08:04:09.865Z,69029.75
2022-09-03T08:06:38.343Z,69054.06
2022-09-03T08:09:08.673Z,69070.03
2022-09-03T08:11:41.761Z,69092.06
2022-09-03T08:14:11.700Z,69105.19
2022-09-03T08:16:46.102Z,69104.94
2022-09-03T08:19:14.141Z,69088.84
2022-09-03T08:21:42.341Z,69115.44
2022-09-03T08:24:15.116Z,69129.66
2022-09-03T08:26:46.494Z,69146.38
2022-09-03T08:29:18.612Z,69160.44
2022-09-03T08:31:46.198Z,69163.31
2022-09-03T08:34:14.844Z,69176.63
2022-09-03T08:36:42.444Z,69185.41
2022-09-03T08:39:11.257Z,69196.97
2022-09-03T08:41:53.530Z,69230.19
2022-09-03T08:44:45.427Z,69257.97
2022-09-03T08:47:34.320Z,69268.06
2022-09-03T08:50:12.706Z,69248.63
2022-09-03T08:52:54.939Z,69250.75
2022-09-03T08:55:27.530Z,69267.47
2022-09-03T08:58:12.095Z,69282.88
2022-09-03T09:01:04.145Z,69296.56
2022-09-03T09:03:37.189Z,69300.38
2022-09-03T09:06:34.916Z,69317.50
2022-09-03T09:09:11.708Z,69324.50
2022-09-03T09:12:04.575Z,69339.19
2022-09-03T09:14:45.685Z,69305.50
2022-09-03T09:17:28.130Z,69321.50
2022-09-03T09:20:23.245Z,69332.75
2022-09-03T09:23:01.735Z,69371.56
2022-09-03T09:25:31.761Z,69395.69
2022-09-03T09:28:01.823Z,69411.13
2022-09-03T09:30:31.571Z,69425.41
2022-09-03T09:33:00.683Z,69422.13
2022-09-03T09:35:28.006Z,69397.25
2022-09-03T09:38:02.347Z,69389.84
2022-09-03T09:40:35.977Z,69397.22
2022-09-03T09:43:23.610Z,69445.94
2022-09-03T09:45:53.477Z,69461.94
2022-09-03T09:48:31.633Z,69448.22
2022-09-03T09:51:14.805Z,69440.06
2022-09-03T09:53:42.457Z,69439.81
2022-09-03T09:56:21.693Z,69466.91
2022-09-03T09:58:49.321Z,69463.66
2022-09-03T10:01:23.751Z,69471.47
2022-09-03T10:03:58.121Z,69469.94
2022-09-03T10:06:47.143Z,69487.09
2022-09-03T10:09:20.846Z,69520.22
2022-09-03T10:11:55.880Z,69543.63
2022-09-03T10:15:03.789Z,69575.66
2022-09-03T10:17:42.955Z,69578.38
2022-09-03T10:20:27.559Z,69544.19
2022-09-03T10:23:16.422Z,69536.94
2022-09-03T10:25:50.440Z,69538.50
2022-09-03T10:28:18.282Z,69531.09
2022-09-03T10:30:55.266Z,69559.63
2022-09-03T10:33:39.478Z,69534.28
2022-09-03T10:36:38.964Z,69580.97
2022-09-03T10:39:20.439Z,69607.66
2022-09-03T10:42:15.100Z,69628.97
2022-09-03T10:45:05.399Z,69620.97
2022-09-03T10:48:04.302Z,69625.22
2022-09-03T10:50:46.610Z,69633.56
2022-09-03T10:53:53.549Z,69669.25
2022-09-03T10:56:45.996Z,69670.41
2022-09-03T10:59:51.360Z,69675.72
2022-09-03T11:02:26.475Z,69691.72
2022-09-03T11:05:15.864Z,69719.75
2022-09-03T11:07:52.048Z,69739.22
2022-09-03T11:10:30.940Z,69691.16
2022-09-03T11:12:58.423Z,69648.25
2022-09-03T11:15:35.256Z,69607.66
2022-09-03T11:18:20.401Z,69637.97
2022-09-03T11:20:51.030Z,69637.97
2022-09-03T11:23:20.516Z,69638.22
2022-09-03T11:25:55.181Z,69662.56
2022-09-03T11:29:06.306Z,69675.31
2022-09-03T11:32:00.281Z,69639.28
2022-09-03T11:34:32.112Z,69620.25
2022-09-03T11:37:53.923Z,69640.66
2022-09-03T11:40:41.721Z,69649.00
2022-09-03T11:43:26.459Z,69677.44
2022-09-03T11:46:11.943Z,69709.88
2022-09-03T11:48:46.392Z,69732.16
2022-09-03T11:51:25.578Z,69722.38
2022-09-03T11:54:05.566Z,69725.47
2022-09-03T11:56:37.349Z,69700.72
2022-09-03T11:59:28.814Z,69713.47
2022-09-03T12:02:20.929Z,69702.19
2022-09-03T12:05:19.981Z,69696.16
2022-09-03T12:08:09.093Z,69653.59
2022-09-03T12:11:12.671Z,69640.41
2022-09-03T12:14:13.602Z,69664.84
2022-09-03T12:17:07.675Z,69667.72
2022-09-03T12:20:01.249Z,69698.03
2022-09-03T12:22:40.776Z,69699.16
2022-09-03T12:25:25.678Z,69695.31
2022-09-03T12:27:54.692Z,69717.47
2022-09-03T12:30:27.907Z,69718.44
2022-09-03T12:33:06.007Z,69711.75
2022-09-03T12:38:25.584Z,69716.47
2022-09-03T12:43:52.417Z,69654.00
2022-09-03T12:46:32.350Z,69674.91
2022-09-03T12:52:06.582Z,69706.34
2022-09-03T12:54:42.910Z,69722.44
2022-09-03T12:57:20.845Z,69710.91
2022-09-03T12:59:51.649Z,69743.81
2022-09-03T13:02:28.873Z,69762.69
2022-09-03T13:04:57.586Z,69760.56
2022-09-03T13:07:33.881Z,69749.81
2022-09-03T13:10:08.144Z,69769.38
2022-09-03T13:12:44.764Z,69718.94
2022-09-03T13:15:20.139Z,69689.75
2022-09-03T13:18:01.912Z,69719.03
2022-09-03T13:20:47.105Z,69714.03
2022-09-03T13:23:37.941Z,69725.66
2022-09-03T13:26:26.093Z,69751.41
2022-09-03T13:29:33.304Z,69723.19
2022-09-03T13:32:21.593Z,69675.72
2022-09-03T13:35:08.027Z,69688.28
2022-09-03T13:38:19.593Z,69684.28
2022-09-03T13:41:32.465Z,69727.38
2022-09-03T13:44:14.845Z,69739.53
2022-09-03T13:47:03.570Z,69767.69
2022-09-03T13:50:08.550Z,69720.16
2022-09-03T13:53:01.615Z,69649.38
2022-09-03T13:55:49.333Z,69617.94
2022-09-03T13:58:39.564Z,69642.38
2022-09-03T14:01:26.671Z,69634.53
2022-09-03T14:04:05.705Z,69627.94
2022-09-03T14:06:51.536Z,69625.38
2022-09-03T14:10:02.782Z,69624.09
2022-09-03T14:12:50.657Z,69623.84
2022-09-03T14:15:38.809Z,69643.28
2022-09-03T14:18:14.350Z,69644.25
2022-09-03T14:21:10.267Z,69643.84
2022-09-03T14:23:52.046Z,69652.44
2022-09-03T14:26:39.228Z,69682.56
2022-09-03T14:29:18.829Z,69706.03
2022-09-03T14:32:42.566Z,69724.34
2022-09-03T14:35:29.753Z,69683.88
2022-09-03T14:38:36.230Z,69687.59
2022-09-03T14:41:07.234Z,69621.53
2022-09-03T14:44:04.580Z,69611.66
2022-09-03T14:47:00.301Z,69569.72
2022-09-03T14:50:01.502Z,69591.66
2022-09-03T14:52:47.955Z,69589.94
2022-09-03T14:55:26.191Z,69580.06
2022-09-03T14:58:28.605Z,69551.44
2022-09-03T15:01:27.371Z,69560.22
2022-09-03T15:04:04.760Z,69543.31
2022-09-03T15:06:54.817Z,69521.59
2022-09-03T15:09:33.553Z,69495.25
2022-09-03T15:12:10.481Z,69476.25
2022-09-03T15:14:57.037Z,69460.06
2022-09-03T15:17:44.039Z,69436.97
2022-09-03T15:20:20.835Z,69432.09
2022-09-03T15:23:17.813Z,69428.47
2022-09-03T15:26:14.570Z,69420.06
2022-09-03T15:28:45.839Z,69435.84
2022-09-03T15:31:26.726Z,69464.22
2022-09-03T15:34:14.324Z,69463.09
2022-09-03T15:36:45.351Z,69456.06
2022-09-03T15:39:23.987Z,69420.25
2022-09-03T15:42:08.599Z,69426.53
2022-09-03T15:44:43.048Z,69416.81
2022-09-03T15:47:21.764Z,69401.25
2022-09-03T15:50:08.718Z,69398.97
2022-09-03T15:52:52.176Z,69392.44
2022-09-03T15:55:35.218Z,69392.28
2022-09-03T15:58:10.264Z,69409.81
2022-09-03T16:00:54.942Z,69418.94
2022-09-03T16:03:35.545Z,69434.78
2022-09-03T16:06:07.668Z,69414.69
2022-09-03T16:08:58.625Z,69398.91
2022-09-03T16:11:39.696Z,69428.25
2022-09-03T16:14:20.631Z,69439.81
2022-09-03T16:17:08.073Z,69456.97
2022-09-03T16:19:47.102Z,69451.25
2022-09-03T16:22:23.436Z,69406.91
2022-09-03T16:24:59.552Z,69411.53
2022-09-03T16:27:37.958Z,69390.97
2022-09-03T16:30:06.198Z,69385.09
2022-09-03T16:33:17.005Z,69379.56
2022-09-03T16:36:08.996Z,69352.88
2022-09-03T16:38:56.564Z,69357.84
2022-09-03T16:41:44.782Z,69359.72
2022-09-03T16:44:16.264Z,69348.47
2022-09-03T16:46:56.826Z,69357.44
2022-09-03T16:49:46.437Z,69374.00
2022-09-03T16:52:46.311Z,69377.03
2022-09-03T16:55:23.463Z,69361.44
2022-09-03T16:58:08.473Z,69351.75
2022-09-03T17:01:06.994Z,69336.34
2022-09-03T17:03:48.815Z,69336.75
2022-09-03T17:06:25.453Z,69328.56
2022-09-03T17:09:20.406Z,69320.34
2022-09-03T17:12:04.516Z,69317.50
2022-09-03T17:14:50.477Z,69306.09
2022-09-03T17:17:50.146Z,69300.22
2022-09-03T17:20:40.029Z,69290.13
2022-09-03T17:23:17.440Z,69287.28
2022-09-03T17:26:12.566Z,69290.34
2022-09-03T17:28:52.842Z,69284.59
2022-09-03T17:32:17.245Z,69274.16
2022-09-03T17:35:06.499Z,69273.56
2022-09-03T17:38:03.351Z,69270.72
2022-09-03T17:40:43.776Z,69266.53
2022-09-03T17:43:29.077Z,69266.91
2022-09-03T17:46:17.238Z,69241.44
2022-09-03T17:48:51.549Z,69212.94
2022-09-03T17:51:22.254Z,69198.84
2022-09-03T17:54:00.450Z,69192.22
2022-09-03T17:56:35.489Z,69177.19
2022-09-03T17:59:35.509Z,69170.91
2022-09-03T18:02:15.560Z,69161.78
2022-09-03T18:04:49.726Z,69154.75
2022-09-03T18:07:33.163Z,69152.31
2022-09-03T18:10:25.353Z,69136.91
2022-09-03T18:13:31.743Z,69125.47
2022-09-03T18:16:32.840Z,69120.38
2022-09-03T18:19:31.729Z,69117.31
2022-09-03T18:22:23.715Z,69115.94
2022-09-03T18:25:18.823Z,69108.03
2022-09-03T18:28:16.024Z,69103.63
2022-09-03T18:31:03.072Z,69111.25
2022-09-03T18:33:50.012Z,69101.19
2022-09-03T18:36:41.297Z,69111.84
2022-09-03T18:39:46.498Z,69105.91
2022-09-03T18:43:03.655Z,69094.91
2022-09-03T18:49:46.051Z,69077.84
2022-09-03T18:52:42.119Z,69066.03
2022-09-03T18:55:34.299Z,69057.50
2022-09-03T18:58:49.963Z,69056.41
2022-09-03T19:01:53.239Z,69049.72
2022-09-03T19:04:42.991Z,69043.81
2022-09-03T19:07:46.428Z,69035.81
2022-09-03T19:10:41.943Z,69044.03
2022-09-03T19:13:40.250Z,69031.84
2022-09-03T19:16:52.881Z,69031.66
2022-09-03T19:19:41.526Z,69031.47
2022-09-03T19:22:31.846Z,69022.91
2022-09-03T19:25:41.931Z,69029.94
2022-09-03T19:28:41.458Z,69034.13
2022-09-03T19:31:35.349Z,69023.31
2022-09-03T19:34:45.207Z,69023.47
2022-09-03T19:37:41.325Z,69026.94
2022-09-03T19:40:55.630Z,69019.88
2022-09-03T19:44:04.124Z,69016.84
2022-09-03T19:46:57.065Z,69013.63
2022-09-03T19:50:05.664Z,69009.44
2022-09-03T19:53:02.492Z,69016.84
2022-09-03T19:55:56.045Z,69016.44
2022-09-03T19:58:45.449Z,69017.44
2022-09-03T20:01:32.747Z,69018.00
2022-09-03T20:04:45.608Z,69001.44
2022-09-03T20:07:32.279Z,69009.63
2022-09-03T20:10:23.038Z,69012.47
2022-09-03T20:13:14.978Z,69007.16
2022-09-03T20:15:51.606Z,69001.09
2022-09-03T20:19:10.448Z,68990.44
2022-09-03T20:21:56.055Z,68993.34
2022-09-03T20:24:44.155Z,68985.72
2022-09-03T20:27:52.643Z,68979.84
2022-09-03T20:30:23.489Z,68987.25
2022-09-03T20:33:00.322Z,68978.72
2022-09-03T20:35:56.343Z,68986.09
2022-09-03T20:39:03.515Z,68979.84
2022-09-03T20:41:47.492Z,68974.72
2022-09-03T20:44:27.695Z,68977.00
2022-09-03T20:47:14.182Z,68969.03
2022-09-03T20:49:54.081Z,68977.22
2022-09-03T20:52:30.465Z,68963.50
2022-09-03T20:55:28.848Z,68965.06
2022-09-03T20:57:57.092Z,68966.19
2022-09-03T21:00:26.028Z,68941.75
2022-09-03T21:03:19.951Z,68969.59
2022-09-03T21:05:59.542Z,68961.44
2022-09-03T21:08:49.416Z,68956.91
2022-09-03T21:11:49.308Z,68952.72
2022-09-03T21:14:25.879Z,68956.50
2022-09-03T21:17:05.229Z,68953.06
2022-09-03T21:20:17.189Z,68954.63
2022-09-03T21:23:00.721Z,68946.25
2022-09-03T21:25:38.327Z,68940.16
2022-09-03T21:28:12.997Z,68932.03
2022-09-03T21:30:46.958Z,68926.31
2022-09-03T21:33:21.071Z,68927.28
2022-09-03T21:36:02.210Z,68916.06
2022-09-03T21:38:37.395Z,68908.84
2022-09-03T21:41:30.586Z,68905.03
2022-09-03T21:44:13.087Z,68910.38
2022-09-03T21:47:01.372Z,68913.22
2022-09-03T21:49:38.471Z,68912.06
2022-09-03T21:52:20.754Z,68908.28
2022-09-03T21:54:49.541Z,68913.63
2022-09-03T21:57:22.134Z,68906.56
2022-09-03T22:00:02.417Z,68899.56
2022-09-03T22:02:40.821Z,68894.84
2022-09-03T22:05:09.195Z,68908.50
2022-09-03T22:08:02.894Z,68894.03
2022-09-03T22:10:50.011Z,68894.03
2022-09-03T22:13:26.829Z,68887.63
2022-09-03T22:16:04.705Z,68887.63
2022-09-03T22:18:38.736Z,68885.56
2022-09-03T22:21:29.834Z,68880.03
2022-09-03T22:24:19.199Z,68873.97
2022-09-03T22:26:53.479Z,68878.34
2022-09-03T22:29:24.303Z,68887.03
2022-09-03T22:31:59.609Z,68875.28
2022-09-03T22:34:39.746Z,68880.63
2022-09-03T22:37:40.012Z,68877.38
2022-09-03T22:40:23.829Z,68862.75
2022-09-03T22:43:18.672Z,68861.63
2022-09-03T22:46:06.720Z,68861.63
2022-09-03T22:49:08.202Z,68860.88
2022-09-03T22:52:19.691Z,68856.34
2022-09-03T22:54:56.734Z,68853.31
2022-09-03T22:57:28.024Z,68846.84
2022-09-03T23:00:02.062Z,68850.44
2022-09-03T23:02:31.933Z,68847.97
2022-09-03T23:05:21.009Z,68842.28
2022-09-03T23:08:06.319Z,68851.59
2022-09-03T23:10:54.115Z,68850.44
2022-09-03T23:13:37.644Z,68848.38
2022-09-03T23:16:24.316Z,68845.13
2022-09-03T23:18:53.001Z,68852.72
2022-09-03T23:21:25.307Z,68843.41
2022-09-03T23:24:25.271Z,68836.03
2022-09-03T23:26:53.911Z,68835.84
2022-09-03T23:29:43.826Z,68833.97
2022-09-03T23:32:13.872Z,68833.56
2022-09-03T23:34:43.769Z,68830.34
2022-09-03T23:37:33.101Z,68843.06
2022-09-03T23:40:13.744Z,68844.56
2022-09-03T23:43:17.715Z,68852.34
2022-09-03T23:46:16.648Z,68842.84
2022-09-03T23:49:09.119Z,68852.91
2022-09-03T23:51:39.895Z,68853.88
2022-09-03T23:54:24.191Z,68841.72
2022-09-03T23:57:18.672Z,68843.25
